createdAt,value
2019-02-26T00:00:44.870Z,13.08
2019-02-26T00:03:10.229Z,9.70
2019-02-26T00:05:38.713Z,12.20
2019-02-26T00:08:07.213Z,15.53
2019-02-26T00:10:37.128Z,16.97
2019-02-26T00:13:05.903Z,17.12
2019-02-26T00:15:35.841Z,15.00
2019-02-26T00:18:07.507Z,17.12
2019-02-26T00:20:37.348Z,26.48
2019-02-26T00:23:05.043Z,16.95
2019-02-26T00:25:33.567Z,16.95
2019-02-26T00:28:02.052Z,16.37
2019-02-26T00:30:31.217Z,14.98
2019-02-26T00:33:02.806Z,14.73
2019-02-26T00:35:30.973Z,15.10
2019-02-26T00:37:59.456Z,13.38
2019-02-26T00:40:27.940Z,16.80
2019-02-26T00:42:57.565Z,14.60
2019-02-26T00:45:27.230Z,20.35
2019-02-26T00:47:56.858Z,21.82
2019-02-26T00:50:25.346Z,18.07
2019-02-26T00:52:56.499Z,17.77
2019-02-26T00:55:27.280Z,17.30
2019-02-26T00:57:56.772Z,17.35
2019-02-26T01:00:26.304Z,18.20
2019-02-26T01:02:54.712Z,14.20
2019-02-26T01:05:23.181Z,15.43
2019-02-26T01:07:52.617Z,14.93
2019-02-26T01:10:23.618Z,14.28
2019-02-26T01:12:52.249Z,17.15
2019-02-26T01:15:21.442Z,16.50
2019-02-26T01:17:49.960Z,17.90
2019-02-26T01:20:19.593Z,20.17
2019-02-26T01:22:49.100Z,18.15
2019-02-26T01:25:18.496Z,17.30
2019-02-26T01:27:48.331Z,20.37
2019-02-26T01:30:23.526Z,15.30
2019-02-26T01:32:48.309Z,17.00
2019-02-26T01:35:16.864Z,17.00
2019-02-26T01:37:45.350Z,15.40
2019-02-26T01:40:18.296Z,16.70
2019-02-26T01:42:49.835Z,17.17
2019-02-26T01:45:14.868Z,17.35
2019-02-26T01:47:45.619Z,19.92
2019-02-26T01:50:15.906Z,26.62
2019-02-26T01:52:43.998Z,21.17
2019-02-26T01:55:12.692Z,15.65
2019-02-26T01:57:43.501Z,16.42
2019-02-26T02:00:19.142Z,24.63
2019-02-26T02:02:47.621Z,27.62
2019-02-26T02:05:16.116Z,21.65
2019-02-26T02:07:46.752Z,19.32
2019-02-26T02:10:15.726Z,19.05
2019-02-26T02:12:44.218Z,17.45
2019-02-26T02:15:17.368Z,15.78
2019-02-26T02:17:44.516Z,15.83
2019-02-26T02:20:18.082Z,15.88
2019-02-26T02:22:44.655Z,14.70
2019-02-26T02:25:13.158Z,16.82
2019-02-26T02:27:41.650Z,20.30
2019-02-26T02:30:17.887Z,17.48
2019-02-26T02:32:43.391Z,15.80
2019-02-26T02:35:12.716Z,16.75
2019-02-26T02:37:42.099Z,17.85
2019-02-26T02:40:12.098Z,17.25
2019-02-26T02:42:42.970Z,15.98
2019-02-26T02:45:16.109Z,14.23
2019-02-26T02:47:42.221Z,16.12
2019-02-26T02:50:15.278Z,14.83
2019-02-26T02:52:44.041Z,17.82
2019-02-26T02:55:15.630Z,19.45
2019-02-26T02:57:42.963Z,20.43
2019-02-26T03:00:16.284Z,18.95
2019-02-26T03:02:46.803Z,20.08
2019-02-26T03:05:15.082Z,22.25
2019-02-26T03:07:47.556Z,22.32
2019-02-26T03:10:16.492Z,18.90
2019-02-26T03:12:48.622Z,20.45
2019-02-26T03:15:16.010Z,20.48
2019-02-26T03:17:44.494Z,18.62
2019-02-26T03:20:14.936Z,19.23
2019-02-26T03:22:46.694Z,18.65
2019-02-26T03:25:21.127Z,17.10
2019-02-26T03:27:47.772Z,19.32
2019-02-26T03:30:31.967Z,18.45
2019-02-26T03:32:58.076Z,17.27
2019-02-26T03:35:23.779Z,15.68
2019-02-26T03:37:55.540Z,18.48
2019-02-26T03:40:24.123Z,24.40
2019-02-26T03:42:52.893Z,28.45
2019-02-26T03:45:24.838Z,29.57
2019-02-26T03:47:51.607Z,18.45
2019-02-26T03:50:20.178Z,22.60
2019-02-26T03:52:48.664Z,21.48
2019-02-26T03:55:18.749Z,20.85
2019-02-26T03:57:50.383Z,20.77
2019-02-26T04:00:20.578Z,21.23
2019-02-26T04:02:51.740Z,24.67
2019-02-26T04:05:19.364Z,25.17
2019-02-26T04:07:51.650Z,21.50
2019-02-26T04:10:18.045Z,19.52
2019-02-26T04:12:48.746Z,22.52
2019-02-26T04:15:19.863Z,24.70
2019-02-26T04:17:48.384Z,23.80
2019-02-26T04:20:16.877Z,23.73
2019-02-26T04:22:48.864Z,22.32
2019-02-26T04:25:24.256Z,24.23
2019-02-26T04:27:57.037Z,22.05
2019-02-26T04:30:47.197Z,26.25
2019-02-26T04:33:30.781Z,44.35
2019-02-26T04:36:26.355Z,33.10
2019-02-26T04:39:22.091Z,33.20
2019-02-26T04:42:11.430Z,22.13
2019-02-26T04:45:02.147Z,20.52
2019-02-26T04:47:41.936Z,21.30
2019-02-26T04:50:10.437Z,18.50
2019-02-26T04:52:42.834Z,20.02
2019-02-26T04:55:09.444Z,22.27
2019-02-26T04:57:40.171Z,23.18
2019-02-26T05:00:10.600Z,22.25
2019-02-26T05:02:39.319Z,39.03
2019-02-26T05:05:08.566Z,24.30
2019-02-26T05:07:38.437Z,27.30
2019-02-26T05:10:08.003Z,31.12
2019-02-26T05:12:37.875Z,17.98
2019-02-26T05:15:11.493Z,69.77
2019-02-26T05:17:37.349Z,24.75
2019-02-26T05:20:09.697Z,26.42
2019-02-26T05:22:36.905Z,21.68
2019-02-26T05:25:08.297Z,18.52
2019-02-26T05:27:40.081Z,19.23
2019-02-26T05:30:09.718Z,21.48
2019-02-26T05:32:39.369Z,20.80
2019-02-26T05:35:07.903Z,26.50
2019-02-26T05:37:38.217Z,23.92
2019-02-26T05:40:10.477Z,80.17
2019-02-26T05:42:37.608Z,27.48
2019-02-26T05:45:09.155Z,27.40
2019-02-26T05:47:36.905Z,23.73
2019-02-26T05:50:13.110Z,37.35
2019-02-26T05:52:37.848Z,36.48
2019-02-26T05:55:06.530Z,39.60
2019-02-26T05:57:35.020Z,37.23
2019-02-26T06:00:04.423Z,26.57
2019-02-26T06:02:32.924Z,21.45
2019-02-26T06:05:01.403Z,23.75
2019-02-26T06:07:33.039Z,30.27
2019-02-26T06:10:00.108Z,26.33
2019-02-26T06:12:32.388Z,28.95
2019-02-26T06:15:04.211Z,22.52
2019-02-26T06:17:29.029Z,22.40
2019-02-26T06:20:10.998Z,24.72
2019-02-26T06:22:39.558Z,31.33
2019-02-26T06:25:13.487Z,26.95
2019-02-26T06:27:38.258Z,22.32
2019-02-26T06:30:12.899Z,29.75
2019-02-26T06:32:42.665Z,23.45
2019-02-26T06:35:16.089Z,29.10
2019-02-26T06:37:44.098Z,19.55
2019-02-26T06:40:14.492Z,21.42
2019-02-26T06:42:42.968Z,17.45
2019-02-26T06:45:16.373Z,17.98
2019-02-26T06:47:45.647Z,16.37
2019-02-26T06:50:16.576Z,15.53
2019-02-26T06:52:46.940Z,14.55
2019-02-26T06:55:14.869Z,15.85
2019-02-26T06:57:44.681Z,13.83
2019-02-26T07:00:16.846Z,15.90
2019-02-26T07:02:46.406Z,22.85
2019-02-26T07:05:15.225Z,16.82
2019-02-26T07:07:43.725Z,17.77
2019-02-26T07:10:18.381Z,14.93
2019-02-26T07:12:45.528Z,17.57
2019-02-26T07:15:15.617Z,18.35
2019-02-26T07:17:45.921Z,20.43
2019-02-26T07:20:14.328Z,18.87
2019-02-26T07:22:44.048Z,19.82
2019-02-26T07:25:16.072Z,18.15
2019-02-26T07:27:43.571Z,19.07
2019-02-26T07:30:12.549Z,13.28
2019-02-26T07:32:43.089Z,24.30
2019-02-26T07:35:13.765Z,15.40
2019-02-26T07:37:41.490Z,13.98
2019-02-26T07:40:15.437Z,18.60
2019-02-26T07:42:46.059Z,16.07
2019-02-26T07:45:15.257Z,18.35
2019-02-26T07:47:45.176Z,15.72
2019-02-26T07:50:14.965Z,24.15
2019-02-26T07:52:44.116Z,22.73
2019-02-26T07:55:14.693Z,22.90
2019-02-26T07:57:45.253Z,14.20
2019-02-26T08:00:21.325Z,15.40
2019-02-26T08:02:52.005Z,15.75
2019-02-26T08:05:21.245Z,17.87
2019-02-26T08:07:51.907Z,15.30
2019-02-26T08:10:20.454Z,15.75
2019-02-26T08:12:48.942Z,17.17
2019-02-26T08:15:17.421Z,18.67
2019-02-26T08:17:50.229Z,17.73
2019-02-26T08:20:16.699Z,19.27
2019-02-26T08:22:45.234Z,23.05
2019-02-26T08:25:14.127Z,21.27
2019-02-26T08:27:42.608Z,19.67
2019-02-26T08:30:20.149Z,18.50
2019-02-26T08:32:48.498Z,22.17
2019-02-26T08:35:18.897Z,18.75
2019-02-26T08:37:46.303Z,16.07
2019-02-26T08:40:15.196Z,20.92
2019-02-26T08:42:43.669Z,18.92
2019-02-26T08:45:15.853Z,28.12
2019-02-26T08:47:45.042Z,85.55
2019-02-26T08:50:14.870Z,67.08
2019-02-26T08:52:44.869Z,24.20
2019-02-26T08:55:18.295Z,32.73
2019-02-26T08:57:46.008Z,27.27
2019-02-26T09:00:21.020Z,32.05
2019-02-26T09:02:53.670Z,31.48
2019-02-26T09:05:19.726Z,58.58
2019-02-26T09:07:50.579Z,29.95
2019-02-26T09:10:22.669Z,35.85
2019-02-26T09:12:51.438Z,38.35
2019-02-26T09:15:19.836Z,18.45
2019-02-26T09:17:48.320Z,38.63
2019-02-26T09:20:18.090Z,36.15
2019-02-26T09:22:48.740Z,30.37
2019-02-26T09:25:16.777Z,41.77
2019-02-26T09:27:45.269Z,35.55
2019-02-26T09:30:20.244Z,32.98
2019-02-26T09:32:48.724Z,29.12
2019-02-26T09:35:26.261Z,18.87
2019-02-26T09:37:53.346Z,28.35
2019-02-26T09:40:23.635Z,27.37
2019-02-26T09:42:54.561Z,29.67
2019-02-26T09:45:26.085Z,29.70
2019-02-26T09:47:55.636Z,20.92
2019-02-26T09:50:23.801Z,29.10
2019-02-26T09:52:55.128Z,22.00
2019-02-26T09:55:22.500Z,31.40
2019-02-26T09:57:50.977Z,23.12
2019-02-26T10:00:23.606Z,23.42
2019-02-26T10:02:52.069Z,25.88
2019-02-26T10:05:20.846Z,20.88
2019-02-26T10:07:53.674Z,18.60
2019-02-26T10:10:25.355Z,21.52
2019-02-26T10:12:56.239Z,23.02
2019-02-26T10:15:23.721Z,30.75
2019-02-26T10:17:52.203Z,30.08
2019-02-26T10:20:23.282Z,22.93
2019-02-26T10:22:53.238Z,22.73
2019-02-26T10:25:23.267Z,15.88
2019-02-26T10:27:52.728Z,20.23
2019-02-26T10:30:21.801Z,23.52
2019-02-26T10:32:50.299Z,28.77
2019-02-26T10:35:33.233Z,34.73
2019-02-26T10:37:57.068Z,40.67
2019-02-26T10:40:34.598Z,125.33
2019-02-26T10:42:57.027Z,87.25
2019-02-26T10:45:29.245Z,67.12
2019-02-26T10:48:00.941Z,36.33
2019-02-26T10:50:31.676Z,44.45
2019-02-26T10:53:06.715Z,40.08
2019-02-26T10:55:37.118Z,78.70
2019-02-26T10:58:03.614Z,27.00
2019-02-26T11:00:34.092Z,22.93
2019-02-26T11:03:01.027Z,20.43
2019-02-26T11:05:29.600Z,27.02
2019-02-26T11:08:01.407Z,28.77
2019-02-26T11:10:28.670Z,24.70
2019-02-26T11:12:59.411Z,20.23
2019-02-26T11:15:30.264Z,26.10
2019-02-26T11:17:57.534Z,20.80
2019-02-26T11:20:28.270Z,14.45
2019-02-26T11:22:56.237Z,19.40
2019-02-26T11:25:27.181Z,28.98
2019-02-26T11:27:54.925Z,21.42
2019-02-26T11:30:28.574Z,19.25
2019-02-26T11:32:58.762Z,286.18
2019-02-26T11:35:27.100Z,22.87
2019-02-26T11:37:57.409Z,22.25
2019-02-26T11:40:29.660Z,25.75
2019-02-26T11:42:56.127Z,20.62
2019-02-26T11:45:24.610Z,16.02
2019-02-26T11:47:55.176Z,17.92
2019-02-26T11:50:27.935Z,21.10
2019-02-26T11:52:57.129Z,19.80
2019-02-26T11:55:26.877Z,14.07
2019-02-26T11:57:55.849Z,19.75
2019-02-26T12:00:31.358Z,14.78
2019-02-26T12:02:57.310Z,15.00
2019-02-26T12:05:31.458Z,20.52
2019-02-26T12:07:56.825Z,17.42
2019-02-26T12:10:29.089Z,14.40
2019-02-26T12:12:57.278Z,14.18
2019-02-26T12:15:29.952Z,13.48
2019-02-26T12:17:58.760Z,24.67
2019-02-26T12:20:27.119Z,20.82
2019-02-26T12:22:55.614Z,17.32
2019-02-26T12:25:24.082Z,15.85
2019-02-26T12:27:52.576Z,11.70
2019-02-26T12:30:21.863Z,15.60
2019-02-26T12:32:52.498Z,15.10
2019-02-26T12:35:20.557Z,16.85
2019-02-26T12:37:50.288Z,14.90
2019-02-26T12:40:21.779Z,16.95
2019-02-26T12:42:49.615Z,15.05
2019-02-26T12:45:19.604Z,13.43
2019-02-26T12:47:49.347Z,19.55
2019-02-26T12:50:23.784Z,17.00
2019-02-26T12:52:53.842Z,15.45
2019-02-26T12:55:28.946Z,15.63
2019-02-26T12:57:56.143Z,22.90
2019-02-26T13:00:26.473Z,16.50
2019-02-26T13:02:54.979Z,40.35
2019-02-26T13:05:23.489Z,41.33
2019-02-26T13:07:52.009Z,20.57
2019-02-26T13:10:25.468Z,28.60
2019-02-26T13:12:59.454Z,36.68
2019-02-26T13:15:24.170Z,17.35
2019-02-26T13:17:54.558Z,27.62
2019-02-26T13:20:29.123Z,13.98
2019-02-26T13:23:16.317Z,20.90
2019-02-26T13:25:27.813Z,18.75
2019-02-26T13:27:56.297Z,25.85
2019-02-26T13:30:25.786Z,26.93
2019-02-26T13:32:59.787Z,18.05
2019-02-26T13:35:24.542Z,18.52
2019-02-26T13:37:55.884Z,20.77
2019-02-26T13:40:25.298Z,23.25
2019-02-26T13:45:25.564Z,22.15
2019-02-26T13:48:00.838Z,26.35
2019-02-26T13:50:32.617Z,24.47
2019-02-26T13:53:01.104Z,21.85
2019-02-26T13:55:29.591Z,22.05
2019-02-26T13:57:58.077Z,20.77
2019-02-26T14:00:27.112Z,21.87
2019-02-26T14:02:55.732Z,25.35
2019-02-26T14:05:24.216Z,23.30
2019-02-26T14:07:52.707Z,28.17
2019-02-26T14:10:24.312Z,27.60
2019-02-26T14:12:52.797Z,22.58
2019-02-26T14:15:26.699Z,27.70
2019-02-26T14:17:55.186Z,33.35
2019-02-26T14:20:23.660Z,41.48
2019-02-26T14:22:52.198Z,31.10
2019-02-26T14:25:20.677Z,29.90
2019-02-26T14:27:49.164Z,29.90
2019-02-26T14:30:19.631Z,28.32
2019-02-26T14:32:48.133Z,32.42
2019-02-26T14:35:16.619Z,22.20
2019-02-26T14:37:45.104Z,35.30
2019-02-26T14:40:20.219Z,32.45
2019-02-26T14:42:48.701Z,37.88
2019-02-26T14:45:25.166Z,29.98
2019-02-26T14:47:53.645Z,23.55
2019-02-26T14:50:23.049Z,32.53
2019-02-26T14:52:51.530Z,28.17
2019-02-26T14:55:20.023Z,32.23
2019-02-26T14:57:48.507Z,33.02
2019-02-26T15:00:27.867Z,23.83
2019-02-26T15:02:56.354Z,25.97
2019-02-26T15:05:24.841Z,34.73
2019-02-26T15:07:53.328Z,16.70
2019-02-26T15:10:21.817Z,22.42
2019-02-26T15:12:50.310Z,17.95
2019-02-26T15:15:19.209Z,16.40
2019-02-26T15:17:47.684Z,22.52
2019-02-26T15:20:20.215Z,18.98
2019-02-26T15:22:48.708Z,20.48
2019-02-26T15:25:25.819Z,21.12
2019-02-26T15:27:54.328Z,19.32
2019-02-26T15:30:23.119Z,20.90
2019-02-26T15:32:51.621Z,18.80
2019-02-26T15:35:20.319Z,18.15
2019-02-26T15:37:48.825Z,20.77
2019-02-26T15:40:20.969Z,18.98
2019-02-26T15:42:52.339Z,26.25
2019-02-26T15:45:29.011Z,31.27
2019-02-26T15:47:58.192Z,26.40
2019-02-26T15:50:26.681Z,29.70
2019-02-26T15:52:55.238Z,22.48
2019-02-26T15:55:29.250Z,24.77
2019-02-26T15:58:02.974Z,24.90
2019-02-26T16:00:28.252Z,53.95
2019-02-26T16:02:59.369Z,43.92
2019-02-26T16:05:29.490Z,44.05
2019-02-26T16:07:57.968Z,37.70
2019-02-26T16:10:26.467Z,51.20
2019-02-26T16:12:56.531Z,58.92
2019-02-26T16:15:25.031Z,71.92
2019-02-26T16:17:58.152Z,75.45
2019-02-26T16:20:23.754Z,53.05
2019-02-26T16:22:52.261Z,40.35
2019-02-26T16:25:20.784Z,34.05
2019-02-26T16:27:51.710Z,44.38
2019-02-26T16:30:27.589Z,32.53
2019-02-26T16:32:56.355Z,38.90
2019-02-26T16:35:25.597Z,30.25
2019-02-26T16:37:54.322Z,32.75
2019-02-26T16:40:22.807Z,29.92
2019-02-26T16:42:51.324Z,36.80
2019-02-26T16:45:27.227Z,29.02
2019-02-26T16:47:57.272Z,33.45
2019-02-26T16:50:31.750Z,28.40
2019-02-26T16:53:01.069Z,29.67
2019-02-26T16:55:30.039Z,32.38
2019-02-26T16:58:02.373Z,31.57
2019-02-26T17:00:29.985Z,28.02
2019-02-26T17:03:00.982Z,24.32
2019-02-26T17:05:28.991Z,30.43
2019-02-26T17:07:57.757Z,33.08
2019-02-26T17:10:30.326Z,30.77
2019-02-26T17:13:01.767Z,27.37
2019-02-26T17:15:35.863Z,29.40
2019-02-26T17:18:04.357Z,40.33
2019-02-26T17:20:32.843Z,32.38
2019-02-26T17:23:01.340Z,45.95
2019-02-26T17:25:29.822Z,37.88
2019-02-26T17:27:58.310Z,47.55
2019-02-26T17:30:26.807Z,48.28
2019-02-26T17:32:55.396Z,62.53
2019-02-26T17:35:23.879Z,47.83
2019-02-26T17:37:52.376Z,51.90
2019-02-26T17:40:21.960Z,72.62
2019-02-26T17:42:51.260Z,55.03
2019-02-26T17:45:31.678Z,60.35
2019-02-26T17:48:00.187Z,51.65
2019-02-26T17:50:39.647Z,59.73
2019-02-26T17:53:08.509Z,75.97
2019-02-26T17:55:36.998Z,52.65
2019-02-26T17:58:09.800Z,46.50
2019-02-26T18:00:40.207Z,62.27
2019-02-26T18:03:08.690Z,79.50
2019-02-26T18:05:40.725Z,61.50
2019-02-26T18:08:07.400Z,52.43
2019-02-26T18:10:36.683Z,38.13
2019-02-26T18:13:05.362Z,56.33
2019-02-26T18:15:33.960Z,52.70
2019-02-26T18:18:02.451Z,40.55
2019-02-26T18:20:30.934Z,40.88
2019-02-26T18:23:00.221Z,66.95
2019-02-26T18:25:29.402Z,44.58
2019-02-26T18:27:57.893Z,42.75
2019-02-26T18:30:30.192Z,40.43
2019-02-26T18:32:59.307Z,44.25
2019-02-26T18:35:27.952Z,44.63
2019-02-26T18:37:56.449Z,44.60
2019-02-26T18:40:27.899Z,37.85
2019-02-26T18:42:55.156Z,37.63
2019-02-26T18:45:27.923Z,46.85
2019-02-26T18:47:56.608Z,48.65
2019-02-26T18:50:25.929Z,53.83
2019-02-26T18:52:55.321Z,46.73
2019-02-26T18:55:27.981Z,43.70
2019-02-26T18:57:54.521Z,41.00
2019-02-26T19:00:28.389Z,39.03
2019-02-26T19:02:56.901Z,36.88
2019-02-26T19:05:25.372Z,38.65
2019-02-26T19:07:53.910Z,43.08
2019-02-26T19:10:22.386Z,55.73
2019-02-26T19:12:50.869Z,48.58
2019-02-26T19:15:24.637Z,40.45
2019-02-26T19:17:54.525Z,58.28
2019-02-26T19:20:31.721Z,74.82
2019-02-26T19:23:02.022Z,60.03
2019-02-26T19:25:30.489Z,86.57
2019-02-26T19:27:58.978Z,96.82
2019-02-26T19:30:27.543Z,55.10
2019-02-26T19:32:56.026Z,43.50
2019-02-26T19:35:24.541Z,58.42
2019-02-26T19:37:56.680Z,54.95
2019-02-26T19:40:33.969Z,54.10
2019-02-26T19:43:02.447Z,49.38
2019-02-26T19:45:32.895Z,46.45
2019-02-26T19:48:01.150Z,55.35
2019-02-26T19:50:29.650Z,59.53
2019-02-26T19:53:02.149Z,63.25
2019-02-26T19:55:34.205Z,63.20
2019-02-26T19:58:05.751Z,57.43
2019-02-26T20:00:32.972Z,69.30
2019-02-26T20:03:04.886Z,61.02
2019-02-26T20:05:31.634Z,55.28
2019-02-26T20:08:00.132Z,65.70
2019-02-26T20:10:28.842Z,68.47
2019-02-26T20:13:00.440Z,75.40
2019-02-26T20:15:27.561Z,58.95
2019-02-26T20:17:56.042Z,56.20
2019-02-26T20:20:24.541Z,44.55
2019-02-26T20:22:53.026Z,46.37
2019-02-26T20:25:21.614Z,47.80
2019-02-26T20:27:50.103Z,41.02
2019-02-26T20:30:22.923Z,44.80
2019-02-26T20:32:51.269Z,42.80
2019-02-26T20:35:19.762Z,39.70
2019-02-26T20:37:48.249Z,39.92
2019-02-26T20:40:24.755Z,40.38
2019-02-26T20:42:53.240Z,40.73
2019-02-26T20:45:22.749Z,38.70
2019-02-26T20:47:51.296Z,39.45
2019-02-26T20:50:21.081Z,38.45
2019-02-26T20:52:50.000Z,36.35
2019-02-26T20:55:29.679Z,37.48
2019-02-26T20:57:58.168Z,38.45
2019-02-26T21:00:26.762Z,39.05
2019-02-26T21:02:55.288Z,37.98
2019-02-26T21:05:25.059Z,41.13
2019-02-26T21:07:58.012Z,36.53
2019-02-26T21:10:23.966Z,34.33
2019-02-26T21:12:52.441Z,37.30
2019-02-26T21:15:25.166Z,35.20
2019-02-26T21:17:57.712Z,36.42
2019-02-26T21:20:23.874Z,37.53
2019-02-26T21:22:54.571Z,33.88
2019-02-26T21:25:22.597Z,37.25
2019-02-26T21:27:51.074Z,37.00
2019-02-26T21:30:24.722Z,33.80
2019-02-26T21:32:57.859Z,35.35
2019-02-26T21:35:25.083Z,33.05
2019-02-26T21:37:53.677Z,38.50
2019-02-26T21:40:22.155Z,34.92
2019-02-26T21:42:50.782Z,39.00
2019-02-26T21:45:22.244Z,32.90
2019-02-26T21:47:51.378Z,35.00
2019-02-26T21:50:22.894Z,33.20
2019-02-26T21:53:05.541Z,35.25
2019-02-26T21:55:20.952Z,36.20
2019-02-26T21:57:49.447Z,35.10
2019-02-26T22:00:20.393Z,35.33
2019-02-26T22:02:52.105Z,33.75
2019-02-26T22:05:19.177Z,36.13
2019-02-26T22:07:51.989Z,31.20
2019-02-26T22:10:22.334Z,34.15
2019-02-26T22:12:50.822Z,32.35
2019-02-26T22:15:19.304Z,34.20
2019-02-26T22:17:47.826Z,32.48
2019-02-26T22:20:35.495Z,36.35
2019-02-26T22:22:50.420Z,33.35
2019-02-26T22:25:19.012Z,35.63
2019-02-26T22:27:47.495Z,31.52
2019-02-26T22:30:21.562Z,32.23
2019-02-26T22:32:47.589Z,31.40
2019-02-26T22:35:16.064Z,32.70
2019-02-26T22:37:44.557Z,29.63
2019-02-26T22:40:15.837Z,32.70
2019-02-26T22:42:44.334Z,28.67
2019-02-26T22:45:12.273Z,31.07
2019-02-26T22:47:41.550Z,29.32
2019-02-26T22:50:13.156Z,27.15
2019-02-26T22:52:41.772Z,28.38
2019-02-26T22:55:16.131Z,83.22
2019-02-26T22:57:43.041Z,186.12
2019-02-26T23:00:31.418Z,188.82
2019-02-26T23:02:59.947Z,154.23
2019-02-26T23:05:28.736Z,150.55
2019-02-26T23:07:57.227Z,146.77
2019-02-26T23:10:25.720Z,137.90
2019-02-26T23:12:54.208Z,120.42
2019-02-26T23:15:22.700Z,91.57
2019-02-26T23:17:51.202Z,124.27
2019-02-26T23:20:19.738Z,148.13
2019-02-26T23:22:48.425Z,90.85
2019-02-26T23:25:16.905Z,48.38
2019-02-26T23:27:46.126Z,45.95
2019-02-26T23:30:16.211Z,78.83
2019-02-26T23:32:44.696Z,73.50
2019-02-26T23:35:14.082Z,67.45
2019-02-26T23:37:42.575Z,58.87
2019-02-26T23:40:12.108Z,50.03
2019-02-26T23:42:40.596Z,59.55
2019-02-26T23:45:13.327Z,90.92
2019-02-26T23:47:41.804Z,61.65
2019-02-26T23:50:11.294Z,52.50
2019-02-26T23:52:39.796Z,77.87
2019-02-26T23:55:13.052Z,70.30
2019-02-26T23:57:40.395Z,53.60
